sensor_id;sensor_type;location;lat;lon;timestamp;pressure;altitude;pressure_sealevel;temperature;humidity
15272;BME280;7737;51.578;7.268;2023-02-23T00:00:46;63419.03;;;-143.17;100.00
15272;BME280;7737;51.578;7.268;2023-02-23T00:04:11;63419.03;;;-143.17;100.00
15272;BME280;7737;51.578;7.268;2023-02-23T00:07:36;63419.03;;;-143.17;100.00
15272;BME280;7737;51.578;7.268;2023-02-23T00:11:02;63419.03;;;-143.17;100.00
15272;BME280;7737;51.578;7.268;2023-02-23T00:14:29;63419.03;;;-143.17;100.00
15272;BME280;7737;51.578;7.268;2023-02-23T00:17:55;63419.03;;;-143.17;100.00
15272;BME280;7737;51.578;7.268;2023-02-23T00:21:22;63419.03;;;-143.17;100.00
15272;BME280;7737;51.578;7.268;2023-02-23T00:24:48;63419.03;;;-143.17;100.00
15272;BME280;7737;51.578;7.268;2023-02-23T00:28:13;63419.03;;;-143.17;100.00
15272;BME280;7737;51.578;7.268;2023-02-23T00:31:40;63419.03;;;-143.17;100.00
15272;BME280;7737;51.578;7.268;2023-02-23T00:35:08;63419.03;;;-143.17;100.00
15272;BME280;7737;51.578;7.268;2023-02-23T00:38:40;63419.03;;;-143.17;100.00
15272;BME280;7737;51.578;7.268;2023-02-23T00:42:06;63419.03;;;-143.17;100.00
15272;BME280;7737;51.578;7.268;2023-02-23T00:45:33;63419.03;;;-143.17;100.00
15272;BME280;7737;51.578;7.268;2023-02-23T00:49:00;63419.03;;;-143.17;100.00
15272;BME280;7737;51.578;7.268;2023-02-23T00:52:28;63419.03;;;-143.17;100.00
15272;BME280;7737;51.578;7.268;2023-02-23T00:55:53;63419.03;;;-143.17;100.00
15272;BME280;7737;51.578;7.268;2023-02-23T00:59:19;63419.03;;;-143.17;100.00
15272;BME280;7737;51.578;7.268;2023-02-23T01:02:44;63419.03;;;-143.17;100.00
15272;BME280;7737;51.578;7.268;2023-02-23T01:06:12;63419.03;;;-143.17;100.00
15272;BME280;7737;51.578;7.268;2023-02-23T01:09:39;63419.03;;;-143.17;100.00
15272;BME280;7737;51.578;7.268;2023-02-23T01:13:04;63419.03;;;-143.17;100.00
15272;BME280;7737;51.578;7.268;2023-02-23T01:16:30;63419.03;;;-143.17;100.00
15272;BME280;7737;51.578;7.268;2023-02-23T01:19:56;63419.03;;;-143.17;100.00
15272;BME280;7737;51.578;7.268;2023-02-23T01:23:23;63419.03;;;-143.17;100.00
15272;BME280;7737;51.578;7.268;2023-02-23T01:26:48;63419.03;;;-143.17;100.00
15272;BME280;7737;51.578;7.268;2023-02-23T01:30:14;63419.03;;;-143.17;100.00
15272;BME280;7737;51.578;7.268;2023-02-23T01:33:39;63419.03;;;-143.17;100.00
15272;BME280;7737;51.578;7.268;2023-02-23T01:37:04;63419.03;;;-143.17;100.00
15272;BME280;7737;51.578;7.268;2023-02-23T01:40:32;63419.03;;;-143.17;100.00
15272;BME280;7737;51.578;7.268;2023-02-23T01:47:49;63419.03;;;-143.17;100.00
15272;BME280;7737;51.578;7.268;2023-02-23T01:51:16;63419.03;;;-143.17;100.00
15272;BME280;7737;51.578;7.268;2023-02-23T01:54:47;63419.03;;;-143.17;100.00
15272;BME280;7737;51.578;7.268;2023-02-23T01:58:16;63419.03;;;-143.17;100.00
15272;BME280;7737;51.578;7.268;2023-02-23T02:01:44;63419.03;;;-143.17;100.00
15272;BME280;7737;51.578;7.268;2023-02-23T02:05:11;63419.03;;;-143.17;100.00
15272;BME280;7737;51.578;7.268;2023-02-23T02:08:39;63419.03;;;-143.17;100.00
15272;BME280;7737;51.578;7.268;2023-02-23T02:12:10;63419.03;;;-143.17;100.00
15272;BME280;7737;51.578;7.268;2023-02-23T02:15:36;63419.03;;;-143.17;100.00
15272;BME280;7737;51.578;7.268;2023-02-23T02:23:26;63419.03;;;-143.17;100.00
15272;BME280;7737;51.578;7.268;2023-02-23T02:27:16;63419.03;;;-143.17;100.00
15272;BME280;7737;51.578;7.268;2023-02-23T02:35:09;63419.03;;;-143.17;100.00
15272;BME280;7737;51.578;7.268;2023-02-23T02:38:51;63419.03;;;-143.17;100.00
15272;BME280;7737;51.578;7.268;2023-02-23T02:42:25;63419.03;;;-143.17;100.00
15272;BME280;7737;51.578;7.268;2023-02-23T02:45:57;63419.03;;;-143.17;100.00
15272;BME280;7737;51.578;7.268;2023-02-23T02:49:31;63419.03;;;-143.17;100.00
15272;BME280;7737;51.578;7.268;2023-02-23T02:53:02;63419.03;;;-143.17;100.00
15272;BME280;7737;51.578;7.268;2023-02-23T02:56:30;63419.03;;;-143.17;100.00
15272;BME280;7737;51.578;7.268;2023-02-23T03:00:00;63419.03;;;-143.17;100.00
15272;BME280;7737;51.578;7.268;2023-02-23T03:03:43;63419.03;;;-143.17;100.00
15272;BME280;7737;51.578;7.268;2023-02-23T03:07:30;63419.03;;;-143.17;100.00
15272;BME280;7737;51.578;7.268;2023-02-23T03:11:21;63419.03;;;-143.17;100.00
15272;BME280;7737;51.578;7.268;2023-02-23T03:15:16;63419.03;;;-143.17;100.00
15272;BME280;7737;51.578;7.268;2023-02-23T03:19:09;63419.03;;;-143.17;100.00
15272;BME280;7737;51.578;7.268;2023-02-23T03:23:03;63419.03;;;-143.17;100.00
15272;BME280;7737;51.578;7.268;2023-02-23T03:26:54;63419.03;;;-143.17;100.00
15272;BME280;7737;51.578;7.268;2023-02-23T03:30:46;63419.03;;;-143.17;100.00
15272;BME280;7737;51.578;7.268;2023-02-23T03:34:35;63419.03;;;-143.17;100.00
15272;BME280;7737;51.578;7.268;2023-02-23T03:38:24;63419.03;;;-143.17;100.00
15272;BME280;7737;51.578;7.268;2023-02-23T03:42:12;63419.03;;;-143.17;100.00
15272;BME280;7737;51.578;7.268;2023-02-23T03:46:02;63419.03;;;-143.17;100.00
15272;BME280;7737;51.578;7.268;2023-02-23T03:49:47;63419.03;;;-143.17;100.00
15272;BME280;7737;51.578;7.268;2023-02-23T03:53:34;63419.03;;;-143.17;100.00
15272;BME280;7737;51.578;7.268;2023-02-23T03:57:24;63419.03;;;-143.17;100.00
15272;BME280;7737;51.578;7.268;2023-02-23T04:01:11;63419.03;;;-143.17;100.00
15272;BME280;7737;51.578;7.268;2023-02-23T04:04:55;63419.03;;;-143.17;100.00
15272;BME280;7737;51.578;7.268;2023-02-23T04:08:44;63419.03;;;-143.17;100.00
15272;BME280;7737;51.578;7.268;2023-02-23T04:12:36;63419.03;;;-143.17;100.00
15272;BME280;7737;51.578;7.268;2023-02-23T04:16:23;63419.03;;;-143.17;100.00
15272;BME280;7737;51.578;7.268;2023-02-23T04:19:48;63419.03;;;-143.17;100.00
15272;BME280;7737;51.578;7.268;2023-02-23T04:23:13;63419.03;;;-143.17;100.00
15272;BME280;7737;51.578;7.268;2023-02-23T04:26:39;63419.03;;;-143.17;100.00
15272;BME280;7737;51.578;7.268;2023-02-23T04:30:05;63419.03;;;-143.17;100.00
15272;BME280;7737;51.578;7.268;2023-02-23T04:33:34;63419.03;;;-143.17;100.00
15272;BME280;7737;51.578;7.268;2023-02-23T04:36:59;63419.03;;;-143.17;100.00
15272;BME280;7737;51.578;7.268;2023-02-23T04:40:24;63419.03;;;-143.17;100.00
15272;BME280;7737;51.578;7.268;2023-02-23T04:43:51;63419.03;;;-143.17;100.00
15272;BME280;7737;51.578;7.268;2023-02-23T04:47:16;63419.03;;;-143.17;100.00
15272;BME280;7737;51.578;7.268;2023-02-23T04:50:41;63419.03;;;-143.17;100.00
15272;BME280;7737;51.578;7.268;2023-02-23T04:54:06;63419.03;;;-143.17;100.00
15272;BME280;7737;51.578;7.268;2023-02-23T04:57:31;63419.03;;;-143.17;100.00
15272;BME280;7737;51.578;7.268;2023-02-23T05:01:02;63419.03;;;-143.17;100.00
15272;BME280;7737;51.578;7.268;2023-02-23T05:04:27;63419.03;;;-143.17;100.00
15272;BME280;7737;51.578;7.268;2023-02-23T05:07:52;63419.03;;;-143.17;100.00
15272;BME280;7737;51.578;7.268;2023-02-23T05:11:18;63419.03;;;-143.17;100.00
15272;BME280;7737;51.578;7.268;2023-02-23T05:14:43;63419.03;;;-143.17;100.00
15272;BME280;7737;51.578;7.268;2023-02-23T05:18:09;63419.03;;;-143.17;100.00
15272;BME280;7737;51.578;7.268;2023-02-23T05:21:34;63419.03;;;-143.17;100.00
15272;BME280;7737;51.578;7.268;2023-02-23T05:24:59;63419.03;;;-143.17;100.00
15272;BME280;7737;51.578;7.268;2023-02-23T05:28:24;63419.03;;;-143.17;100.00
15272;BME280;7737;51.578;7.268;2023-02-23T05:31:49;63419.03;;;-143.17;100.00
15272;BME280;7737;51.578;7.268;2023-02-23T05:35:16;63419.03;;;-143.17;100.00
15272;BME280;7737;51.578;7.268;2023-02-23T05:38:41;63419.03;;;-143.17;100.00
15272;BME280;7737;51.578;7.268;2023-02-23T05:42:07;63419.03;;;-143.17;100.00
15272;BME280;7737;51.578;7.268;2023-02-23T05:45:32;63419.03;;;-143.17;100.00
15272;BME280;7737;51.578;7.268;2023-02-23T05:48:58;63419.03;;;-143.17;100.00
15272;BME280;7737;51.578;7.268;2023-02-23T05:52:26;63419.03;;;-143.17;100.00
15272;BME280;7737;51.578;7.268;2023-02-23T05:55:51;63419.03;;;-143.17;100.00
15272;BME280;7737;51.578;7.268;2023-02-23T05:59:16;63419.03;;;-143.17;100.00
15272;BME280;7737;51.578;7.268;2023-02-23T06:02:41;63419.03;;;-143.17;100.00
15272;BME280;7737;51.578;7.268;2023-02-23T06:06:06;63419.03;;;-143.17;100.00
15272;BME280;7737;51.578;7.268;2023-02-23T06:09:33;63419.03;;;-143.17;100.00
15272;BME280;7737;51.578;7.268;2023-02-23T06:12:58;63419.03;;;-143.17;100.00
15272;BME280;7737;51.578;7.268;2023-02-23T06:16:23;63419.03;;;-143.17;100.00
15272;BME280;7737;51.578;7.268;2023-02-23T06:19:48;63419.03;;;-143.17;100.00
15272;BME280;7737;51.578;7.268;2023-02-23T06:23:13;63419.03;;;-143.17;100.00
15272;BME280;7737;51.578;7.268;2023-02-23T06:26:40;63419.03;;;-143.17;100.00
15272;BME280;7737;51.578;7.268;2023-02-23T06:30:05;63419.03;;;-143.17;100.00
15272;BME280;7737;51.578;7.268;2023-02-23T06:33:30;63419.03;;;-143.17;100.00
15272;BME280;7737;51.578;7.268;2023-02-23T06:36:55;63419.03;;;-143.17;100.00
15272;BME280;7737;51.578;7.268;2023-02-23T06:40:20;63419.03;;;-143.17;100.00
15272;BME280;7737;51.578;7.268;2023-02-23T06:43:46;63419.03;;;-143.17;100.00
15272;BME280;7737;51.578;7.268;2023-02-23T06:47:11;63419.03;;;-143.17;100.00
15272;BME280;7737;51.578;7.268;2023-02-23T06:50:36;63419.03;;;-143.17;100.00
15272;BME280;7737;51.578;7.268;2023-02-23T06:54:01;63419.03;;;-143.17;100.00
15272;BME280;7737;51.578;7.268;2023-02-23T06:57:26;63419.03;;;-143.17;100.00
15272;BME280;7737;51.578;7.268;2023-02-23T07:00:53;63419.03;;;-143.17;100.00
15272;BME280;7737;51.578;7.268;2023-02-23T07:04:19;63419.03;;;-143.17;100.00
15272;BME280;7737;51.578;7.268;2023-02-23T07:07:44;63419.03;;;-143.17;100.00
15272;BME280;7737;51.578;7.268;2023-02-23T07:11:10;63419.03;;;-143.17;100.00
15272;BME280;7737;51.578;7.268;2023-02-23T07:14:36;63419.03;;;-143.17;100.00
15272;BME280;7737;51.578;7.268;2023-02-23T07:18:02;63419.03;;;-143.17;100.00
15272;BME280;7737;51.578;7.268;2023-02-23T07:21:28;63419.03;;;-143.17;100.00
15272;BME280;7737;51.578;7.268;2023-02-23T07:24:54;63419.03;;;-143.17;100.00
15272;BME280;7737;51.578;7.268;2023-02-23T07:28:19;63419.03;;;-143.17;100.00
15272;BME280;7737;51.578;7.268;2023-02-23T07:31:45;63419.03;;;-143.17;100.00
15272;BME280;7737;51.578;7.268;2023-02-23T07:35:14;63419.03;;;-143.17;100.00
15272;BME280;7737;51.578;7.268;2023-02-23T07:38:39;63419.03;;;-143.17;100.00
15272;BME280;7737;51.578;7.268;2023-02-23T07:42:04;63419.03;;;-143.17;100.00
15272;BME280;7737;51.578;7.268;2023-02-23T07:45:29;63419.03;;;-143.17;100.00
15272;BME280;7737;51.578;7.268;2023-02-23T07:48:54;63419.03;;;-143.17;100.00
15272;BME280;7737;51.578;7.268;2023-02-23T07:52:20;63419.03;;;-143.17;100.00
15272;BME280;7737;51.578;7.268;2023-02-23T07:55:45;63419.03;;;-143.17;100.00
15272;BME280;7737;51.578;7.268;2023-02-23T07:59:10;63419.03;;;-143.17;100.00
15272;BME280;7737;51.578;7.268;2023-02-23T08:02:35;63419.03;;;-143.17;100.00
15272;BME280;7737;51.578;7.268;2023-02-23T08:06:01;63419.03;;;-143.17;100.00
15272;BME280;7737;51.578;7.268;2023-02-23T08:09:27;63419.03;;;-143.17;100.00
15272;BME280;7737;51.578;7.268;2023-02-23T08:12:53;63419.03;;;-143.17;100.00
15272;BME280;7737;51.578;7.268;2023-02-23T08:16:18;63419.03;;;-143.17;100.00
15272;BME280;7737;51.578;7.268;2023-02-23T08:19:43;63419.03;;;-143.17;100.00
15272;BME280;7737;51.578;7.268;2023-02-23T08:23:08;63419.03;;;-143.17;100.00
15272;BME280;7737;51.578;7.268;2023-02-23T08:26:35;63419.03;;;-143.17;100.00
15272;BME280;7737;51.578;7.268;2023-02-23T08:30:01;63419.03;;;-143.17;100.00
15272;BME280;7737;51.578;7.268;2023-02-23T08:33:26;63419.03;;;-143.17;100.00
15272;BME280;7737;51.578;7.268;2023-02-23T08:36:51;63419.03;;;-143.17;100.00
15272;BME280;7737;51.578;7.268;2023-02-23T08:40:17;63419.03;;;-143.17;100.00
15272;BME280;7737;51.578;7.268;2023-02-23T08:43:44;63419.03;;;-143.17;100.00
15272;BME280;7737;51.578;7.268;2023-02-23T08:47:09;63419.03;;;-143.17;100.00
15272;BME280;7737;51.578;7.268;2023-02-23T08:50:35;63419.03;;;-143.17;100.00
15272;BME280;7737;51.578;7.268;2023-02-23T08:54:00;63419.03;;;-143.17;100.00
15272;BME280;7737;51.578;7.268;2023-02-23T08:57:25;63419.03;;;-143.17;100.00
15272;BME280;7737;51.578;7.268;2023-02-23T09:00:51;63419.03;;;-143.17;100.00
15272;BME280;7737;51.578;7.268;2023-02-23T09:04:16;63419.03;;;-143.17;100.00
15272;BME280;7737;51.578;7.268;2023-02-23T09:07:42;63419.03;;;-143.17;100.00
15272;BME280;7737;51.578;7.268;2023-02-23T09:11:09;63419.03;;;-143.17;100.00
15272;BME280;7737;51.578;7.268;2023-02-23T09:14:34;63419.03;;;-143.17;100.00
15272;BME280;7737;51.578;7.268;2023-02-23T09:18:01;63419.03;;;-143.17;100.00
15272;BME280;7737;51.578;7.268;2023-02-23T09:21:26;63419.03;;;-143.17;100.00
15272;BME280;7737;51.578;7.268;2023-02-23T09:24:53;63419.03;;;-143.17;100.00
15272;BME280;7737;51.578;7.268;2023-02-23T09:28:18;63419.03;;;-143.17;100.00
15272;BME280;7737;51.578;7.268;2023-02-23T09:31:44;63419.03;;;-143.17;100.00
15272;BME280;7737;51.578;7.268;2023-02-23T09:35:10;63419.03;;;-143.17;100.00
15272;BME280;7737;51.578;7.268;2023-02-23T09:38:35;63419.03;;;-143.17;100.00
15272;BME280;7737;51.578;7.268;2023-02-23T09:42:05;63419.03;;;-143.17;100.00
15272;BME280;7737;51.578;7.268;2023-02-23T09:45:39;63419.03;;;-143.17;100.00
15272;BME280;7737;51.578;7.268;2023-02-23T09:49:15;63419.03;;;-143.17;100.00
15272;BME280;7737;51.578;7.268;2023-02-23T09:52:44;63419.03;;;-143.17;100.00
15272;BME280;7737;51.578;7.268;2023-02-23T09:56:13;63419.03;;;-143.17;100.00
15272;BME280;7737;51.578;7.268;2023-02-23T09:59:40;63419.03;;;-143.17;100.00
15272;BME280;7737;51.578;7.268;2023-02-23T10:02:17;100952.84;;;9.52;100.00
15272;BME280;7737;51.578;7.268;2023-02-23T10:04:50;100953.38;;;9.60;100.00
15272;BME280;7737;51.578;7.268;2023-02-23T10:07:22;100946.00;;;9.66;100.00
15272;BME280;7737;51.578;7.268;2023-02-23T10:10:04;100955.16;;;9.59;100.00
15272;BME280;7737;51.578;7.268;2023-02-23T10:12:42;100951.59;;;9.60;100.00
15272;BME280;7737;51.578;7.268;2023-02-23T10:15:18;100952.91;;;9.92;100.00
15272;BME280;7737;51.578;7.268;2023-02-23T10:17:57;100961.72;;;9.51;100.00
15272;BME280;7737;51.578;7.268;2023-02-23T10:21:32;63419.03;;;-143.17;100.00
15272;BME280;7737;51.578;7.268;2023-02-23T10:25:00;63419.03;;;-143.17;100.00
15272;BME280;7737;51.578;7.268;2023-02-23T10:28:32;63419.03;;;-143.17;100.00
15272;BME280;7737;51.578;7.268;2023-02-23T10:31:58;63419.03;;;-143.17;100.00
15272;BME280;7737;51.578;7.268;2023-02-23T10:35:25;63419.03;;;-143.17;100.00
15272;BME280;7737;51.578;7.268;2023-02-23T10:37:55;100966.09;;;9.52;100.00
15272;BME280;7737;51.578;7.268;2023-02-23T10:40:24;100962.56;;;9.93;100.00
15272;BME280;7737;51.578;7.268;2023-02-23T10:42:53;100960.97;;;10.09;100.00
15272;BME280;7737;51.578;7.268;2023-02-23T10:45:22;100955.44;;;10.15;100.00
15272;BME280;7737;51.578;7.268;2023-02-23T10:47:52;100959.66;;;10.19;100.00
15272;BME280;7737;51.578;7.268;2023-02-23T10:50:20;100964.38;;;10.33;100.00
15272;BME280;7737;51.578;7.268;2023-02-23T10:52:52;100965.50;;;9.87;100.00
15272;BME280;7737;51.578;7.268;2023-02-23T10:55:23;100964.41;;;10.11;100.00
15272;BME280;7737;51.578;7.268;2023-02-23T10:58:01;100973.19;;;9.73;100.00
15272;BME280;7737;51.578;7.268;2023-02-23T11:00:29;100979.13;;;9.14;100.00
15272;BME280;7737;51.578;7.268;2023-02-23T11:02:58;100971.81;;;9.21;100.00
15272;BME280;7737;51.578;7.268;2023-02-23T11:05:35;100973.75;;;8.94;100.00
15272;BME280;7737;51.578;7.268;2023-02-23T11:09:08;100973.75;;;-143.17;100.00
15272;BME280;7737;51.578;7.268;2023-02-23T11:12:52;63419.03;;;-143.17;100.00
15272;BME280;7737;51.578;7.268;2023-02-23T11:16:23;63419.03;;;-143.17;100.00
15272;BME280;7737;51.578;7.268;2023-02-23T11:18:53;100980.84;;;9.37;100.00
15272;BME280;7737;51.578;7.268;2023-02-23T11:21:23;100978.16;;;9.39;100.00
15272;BME280;7737;51.578;7.268;2023-02-23T11:23:52;100977.47;;;9.55;100.00
15272;BME280;7737;51.578;7.268;2023-02-23T11:26:34;100980.72;;;9.62;100.00
15272;BME280;7737;51.578;7.268;2023-02-23T11:29:11;100986.91;;;9.41;100.00
15272;BME280;7737;51.578;7.268;2023-02-23T11:31:39;100988.66;;;9.42;100.00
15272;BME280;7737;51.578;7.268;2023-02-23T11:34:20;100989.13;;;9.30;100.00
15272;BME280;7737;51.578;7.268;2023-02-23T11:36:58;100978.81;;;9.44;100.00
15272;BME280;7737;51.578;7.268;2023-02-23T11:39:25;100976.25;;;9.42;100.00
15272;BME280;7737;51.578;7.268;2023-02-23T11:42:05;100972.44;;;9.48;100.00
15272;BME280;7737;51.578;7.268;2023-02-23T11:44:37;100976.59;;;9.55;100.00
15272;BME280;7737;51.578;7.268;2023-02-23T11:47:03;100972.75;;;9.62;100.00
15272;BME280;7737;51.578;7.268;2023-02-23T11:49:32;100967.41;;;9.42;100.00
15272;BME280;7737;51.578;7.268;2023-02-23T11:52:00;100974.72;;;9.37;100.00
15272;BME280;7737;51.578;7.268;2023-02-23T11:54:28;100971.97;;;9.38;100.00
15272;BME280;7737;51.578;7.268;2023-02-23T11:56:58;100975.31;;;9.43;100.00
15272;BME280;7737;51.578;7.268;2023-02-23T11:59:29;100973.97;;;9.33;100.00
15272;BME280;7737;51.578;7.268;2023-02-23T12:02:03;100972.09;;;9.13;100.00
15272;BME280;7737;51.578;7.268;2023-02-23T12:04:34;100969.75;;;9.28;100.00
15272;BME280;7737;51.578;7.268;2023-02-23T12:07:35;100970.50;;;9.31;100.00
15272;BME280;7737;51.578;7.268;2023-02-23T12:10:11;100972.59;;;9.23;100.00
15272;BME280;7737;51.578;7.268;2023-02-23T12:12:47;100961.59;;;9.32;100.00
15272;BME280;7737;51.578;7.268;2023-02-23T12:15:22;100958.13;;;9.32;100.00
15272;BME280;7737;51.578;7.268;2023-02-23T12:17:55;100960.50;;;9.38;100.00
15272;BME280;7737;51.578;7.268;2023-02-23T12:20:24;100955.25;;;9.36;100.00
15272;BME280;7737;51.578;7.268;2023-02-23T12:22:56;100954.59;;;9.31;100.00
15272;BME280;7737;51.578;7.268;2023-02-23T12:25:26;100952.66;;;9.35;100.00
15272;BME280;7737;51.578;7.268;2023-02-23T12:28:00;100960.25;;;9.44;100.00
15272;BME280;7737;51.578;7.268;2023-02-23T12:30:38;100959.50;;;9.40;100.00
15272;BME280;7737;51.578;7.268;2023-02-23T12:33:11;100961.44;;;9.37;100.00
15272;BME280;7737;51.578;7.268;2023-02-23T12:35:44;100969.69;;;9.51;100.00
15272;BME280;7737;51.578;7.268;2023-02-23T12:38:20;100963.22;;;9.58;100.00
15272;BME280;7737;51.578;7.268;2023-02-23T12:40:55;100967.91;;;9.51;100.00
15272;BME280;7737;51.578;7.268;2023-02-23T12:43:28;100960.63;;;9.35;100.00
15272;BME280;7737;51.578;7.268;2023-02-23T12:46:02;100965.63;;;9.21;100.00
15272;BME280;7737;51.578;7.268;2023-02-23T12:48:38;100963.47;;;9.52;100.00
15272;BME280;7737;51.578;7.268;2023-02-23T12:51:17;100965.31;;;9.50;100.00
15272;BME280;7737;51.578;7.268;2023-02-23T12:53:46;100967.03;;;9.51;100.00
15272;BME280;7737;51.578;7.268;2023-02-23T12:56:25;100957.78;;;9.61;100.00
15272;BME280;7737;51.578;7.268;2023-02-23T12:59:03;100966.03;;;9.53;100.00
15272;BME280;7737;51.578;7.268;2023-02-23T13:01:35;100962.19;;;9.18;100.00
15272;BME280;7737;51.578;7.268;2023-02-23T13:04:31;100965.44;;;9.47;100.00
15272;BME280;7737;51.578;7.268;2023-02-23T13:07:05;100962.91;;;9.44;100.00
15272;BME280;7737;51.578;7.268;2023-02-23T13:09:42;100959.22;;;9.26;100.00
15272;BME280;7737;51.578;7.268;2023-02-23T13:12:20;100956.25;;;9.34;100.00
15272;BME280;7737;51.578;7.268;2023-02-23T13:14:56;100958.13;;;9.32;100.00
15272;BME280;7737;51.578;7.268;2023-02-23T13:17:34;100960.91;;;9.49;100.00
15272;BME280;7737;51.578;7.268;2023-02-23T13:20:07;100954.97;;;9.64;100.00
15272;BME280;7737;51.578;7.268;2023-02-23T13:22:42;100951.94;;;9.53;100.00
15272;BME280;7737;51.578;7.268;2023-02-23T13:25:20;100951.19;;;9.49;100.00
15272;BME280;7737;51.578;7.268;2023-02-23T13:28:51;63419.03;;;-143.17;100.00
15272;BME280;7737;51.578;7.268;2023-02-23T13:31:30;100951.19;;;9.49;100.00
15272;BME280;7737;51.578;7.268;2023-02-23T13:33:59;100964.09;;;9.37;100.00
15272;BME280;7737;51.578;7.268;2023-02-23T13:36:30;100962.91;;;9.22;100.00
15272;BME280;7737;51.578;7.268;2023-02-23T13:39:14;100961.13;;;9.23;100.00
15272;BME280;7737;51.578;7.268;2023-02-23T13:41:51;100965.91;;;9.35;100.00
15272;BME280;7737;51.578;7.268;2023-02-23T13:44:28;100964.25;;;9.32;100.00
15272;BME280;7737;51.578;7.268;2023-02-23T13:47:02;100967.19;;;9.26;100.00
15272;BME280;7737;51.578;7.268;2023-02-23T13:49:36;100976.03;;;9.03;100.00
15272;BME280;7737;51.578;7.268;2023-02-23T13:52:15;100976.34;;;9.17;100.00
15272;BME280;7737;51.578;7.268;2023-02-23T13:54:53;100977.38;;;9.13;100.00
15272;BME280;7737;51.578;7.268;2023-02-23T13:57:22;100977.69;;;9.06;100.00
15272;BME280;7737;51.578;7.268;2023-02-23T13:59:49;100978.44;;;9.09;100.00
15272;BME280;7737;51.578;7.268;2023-02-23T14:02:29;100980.41;;;9.04;100.00
15272;BME280;7737;51.578;7.268;2023-02-23T14:05:01;100977.38;;;9.13;100.00
15272;BME280;7737;51.578;7.268;2023-02-23T14:07:31;100974.06;;;9.08;100.00
15272;BME280;7737;51.578;7.268;2023-02-23T14:10:00;100980.88;;;9.15;100.00
15272;BME280;7737;51.578;7.268;2023-02-23T14:12:33;100985.06;;;9.21;100.00
15272;BME280;7737;51.578;7.268;2023-02-23T14:15:27;100983.75;;;9.09;100.00
15272;BME280;7737;51.578;7.268;2023-02-23T14:18:29;100987.38;;;9.07;100.00
15272;BME280;7737;51.578;7.268;2023-02-23T14:21:02;100987.00;;;8.94;100.00
15272;BME280;7737;51.578;7.268;2023-02-23T14:23:35;100985.53;;;9.09;100.00
15272;BME280;7737;51.578;7.268;2023-02-23T14:26:14;100982.00;;;9.08;100.00
15272;BME280;7737;51.578;7.268;2023-02-23T14:28:44;100982.50;;;8.96;100.00
15272;BME280;7737;51.578;7.268;2023-02-23T14:31:20;100980.06;;;8.90;100.00
15272;BME280;7737;51.578;7.268;2023-02-23T14:33:56;100982.28;;;9.02;100.00
15272;BME280;7737;51.578;7.268;2023-02-23T14:36:37;100979.84;;;8.96;100.00
15272;BME280;7737;51.578;7.268;2023-02-23T14:39:15;100979.16;;;8.91;100.00
15272;BME280;7737;51.578;7.268;2023-02-23T14:41:47;100970.28;;;8.92;100.00
15272;BME280;7737;51.578;7.268;2023-02-23T14:44:16;100974.50;;;8.75;100.00
15272;BME280;7737;51.578;7.268;2023-02-23T14:46:54;100978.59;;;8.83;100.00
15272;BME280;7737;51.578;7.268;2023-02-23T14:49:24;100969.69;;;8.84;100.00
15272;BME280;7737;51.578;7.268;2023-02-23T14:51:54;100972.69;;;8.98;100.00
15272;BME280;7737;51.578;7.268;2023-02-23T14:54:29;100975.25;;;8.78;100.00
15272;BME280;7737;51.578;7.268;2023-02-23T14:56:57;100980.31;;;8.84;100.00
15272;BME280;7737;51.578;7.268;2023-02-23T14:59:26;100978.94;;;8.97;100.00
15272;BME280;7737;51.578;7.268;2023-02-23T15:01:54;100983.66;;;8.89;100.00
15272;BME280;7737;51.578;7.268;2023-02-23T15:04:25;100987.75;;;8.75;100.00
15272;BME280;7737;51.578;7.268;2023-02-23T15:06:56;100976.75;;;8.85;100.00
15272;BME280;7737;51.578;7.268;2023-02-23T15:09:31;100989.91;;;8.65;100.00
15272;BME280;7737;51.578;7.268;2023-02-23T15:12:05;100995.94;;;8.92;100.00
15272;BME280;7737;51.578;7.268;2023-02-23T15:14:35;100990.38;;;8.76;100.00
15272;BME280;7737;51.578;7.268;2023-02-23T15:17:03;100992.03;;;8.79;100.00
15272;BME280;7737;51.578;7.268;2023-02-23T15:19:32;100995.38;;;8.84;100.00
15272;BME280;7737;51.578;7.268;2023-02-23T15:22:02;101000.50;;;8.88;100.00
15272;BME280;7737;51.578;7.268;2023-02-23T15:24:38;100998.72;;;8.89;100.00
15272;BME280;7737;51.578;7.268;2023-02-23T15:27:18;100999.56;;;8.89;100.00
15272;BME280;7737;51.578;7.268;2023-02-23T15:29:47;100997.56;;;8.73;100.00
15272;BME280;7737;51.578;7.268;2023-02-23T15:32:18;100998.25;;;8.78;100.00
15272;BME280;7737;51.578;7.268;2023-02-23T15:34:46;100991.59;;;8.66;100.00
15272;BME280;7737;51.578;7.268;2023-02-23T15:37:20;100997.00;;;8.63;100.00
15272;BME280;7737;51.578;7.268;2023-02-23T15:39:53;100998.44;;;8.73;100.00
15272;BME280;7737;51.578;7.268;2023-02-23T15:42:24;100994.94;;;8.71;100.00
15272;BME280;7737;51.578;7.268;2023-02-23T15:44:54;100998.97;;;8.58;100.00
15272;BME280;7737;51.578;7.268;2023-02-23T15:47:23;100996.69;;;8.72;100.00
15272;BME280;7737;51.578;7.268;2023-02-23T15:50:00;101003.06;;;8.67;100.00
15272;BME280;7737;51.578;7.268;2023-02-23T15:52:29;100998.66;;;8.67;100.00
15272;BME280;7737;51.578;7.268;2023-02-23T15:55:01;101001.75;;;8.78;100.00
15272;BME280;7737;51.578;7.268;2023-02-23T15:57:32;100993.34;;;8.67;100.00
15272;BME280;7737;51.578;7.268;2023-02-23T16:00:02;100994.84;;;8.74;100.00
15272;BME280;7737;51.578;7.268;2023-02-23T16:02:35;100995.88;;;8.70;100.00
15272;BME280;7737;51.578;7.268;2023-02-23T16:05:09;100993.16;;;8.72;100.00
15272;BME280;7737;51.578;7.268;2023-02-23T16:07:42;100994.94;;;8.71;100.00
15272;BME280;7737;51.578;7.268;2023-02-23T16:10:20;100998.88;;;8.61;100.00
15272;BME280;7737;51.578;7.268;2023-02-23T16:12:49;100990.41;;;8.51;100.00
15272;BME280;7737;51.578;7.268;2023-02-23T16:15:23;100990.22;;;8.56;100.00
15272;BME280;7737;51.578;7.268;2023-02-23T16:17:52;100992.84;;;8.33;100.00